Ashuelot River @ Keene, Nh

Ashuelot River at Keene
 Total Drainage Area: 114 sq. miles 
 Drainage Area Controlled by Corps Dams: 100 sq. miles (88%) 
 Warning Flow/Stage: ?? cfs / 71.5 feet 
 Flood Flow/Stage: ?? cfs / 73.0 feet 
NOTE: Flow measurements are currently experimental and are considered preliminary.
Date Time
(Eastern)
Stage
(ft)
Flow
(cfs)
CSM
(cfs / sq. mi.)
Jun-25 01:30 am 67.19 328 2.9
Jun-25 12:30 am 67.20 323 2.8
Jun-24 11:30 pm 67.20 331 2.9
Jun-24 10:30 pm 67.20 331 2.9
Jun-24 09:30 pm 67.20 316 2.8
Jun-24 08:30 pm 67.18 308 2.7
Jun-24 07:30 pm 67.17 305 2.7
Jun-24 06:30 pm 67.16 303 2.7
Jun-24 05:30 pm 67.15 310 2.7
Jun-24 04:30 pm 67.13 294 2.6
Jun-24 03:30 pm 67.12 278 2.4
Jun-24 02:30 pm 67.10 273 2.4
Jun-24 01:30 pm 67.08 271 2.4
Jun-24 12:30 pm 67.07 270 2.4
Jun-24 11:30 am 67.05 259 2.3
Jun-24 10:30 am 67.03 250 2.2
Jun-24 09:30 am 67.00 242 2.1
Jun-24 08:30 am 66.96 238 2.1
Jun-24 07:30 am 66.91 238 2.1
Jun-24 06:30 am 66.86 222 1.9
Jun-24 05:30 am 66.79 219 1.9
Jun-24 04:30 am 66.73 208 1.8
Jun-24 03:30 am 66.67 197 1.7
Jun-24 02:30 am 66.56 185 1.6
Jun-24 01:30 am 66.43 189 1.7
Report Generated June 25, 2024 06:30 am